Woodland, Iowa
Current Conditions -  °F | °C
As of 8:53 PM on Monday 26 Jan 2015 (Local Time) from KLWD Reporting Station
Clear Clear  
Wind Chill: 35°   Ceiling: Unl
Heat Index: 42°   Visibility: 10mi
Dew Point: 34°   Wind: 13mph
Humidity: 73%   Direction: 320°NW
Pressure: 29.95"   Gusts: NA
Location:  40.7175°N, 93.6143°W
Report Text: KLWD 270253Z AUTO 32011KT 10SM CLR 06/01 A2995 RMK AO2 SLP151 T00560011 51014
Loading
Personal Weather Stations






























Interactive Weather Map New forecast layout! Learn more

10-Day Weather Forecast

Advertisements
Track Severe Weather on mobile